Terminal Aerodrome Forecast
Issued by NWS

Home | Current Version | Previous Version | Text Only | Print | Product List | Glossary On
Versions: 1 2 3 4 5 6 7 8 9 10 11 12 13 14 15 16 17
000
FTUS46 KSGX 260500
TAFCRQ
TAF
KCRQ 260520Z 2606/2706 00000KT P6SM BKN008
     FM261000 00000KT 5SM BR OVC007
     FM261500 VRB03KT 6SM BR BKN008
     FM261700 VRB04KT P6SM SCT120
     FM262100 26008KT P6SM SCT120
     FM270200 VRB04KT P6SM SCT008 SCT100=

USA.gov is the U.S. government's official web portal to all federal, state and local government web resources and services.